Time,TemperatureF,DewpointF,PressureIn,WindDirection,WindDirectionDegrees,WindSpeedMPH,WindSpeedGustMPH,Humidity,HourlyPrecipIn,Conditions,Clouds,dailyrainin,SolarRadiationWatts/m^2,SoftwareType,DateUTC
2013-03-23 00:00:00,33.0,19.8,29.96,ESE,121,0.0,0.0,58,0.00,,,0.00,0,Wunderground v.1.15,2013-03-23 05:00:00,
2013-03-23 00:10:00,33.0,19.8,29.96,ESE,121,0.0,0.0,58,0.00,,,0.00,0,Wunderground v.1.15,2013-03-23 05:10:00,
2013-03-23 00:15:00,33.0,19.8,29.96,ESE,121,0.0,0.0,58,0.00,,,0.00,0,Wunderground v.1.15,2013-03-23 05:15:00,
2013-03-23 00:20:00,33.0,19.8,29.96,ESE,121,0.0,0.0,58,0.00,,,0.00,0,Wunderground v.1.15,2013-03-23 05:20:00,
2013-03-23 00:30:00,33.0,19.8,29.98,ESE,121,0.0,0.0,58,0.00,,,0.00,0,Wunderground v.1.15,2013-03-23 05:30:00,
2013-03-23 00:40:00,33.0,19.8,29.98,ESE,121,0.0,0.0,58,0.00,,,0.00,0,Wunderground v.1.15,2013-03-23 05:40:00,
2013-03-23 00:45:00,33.0,19.8,29.98,ESE,121,0.0,0.0,58,0.00,,,0.00,0,Wunderground v.1.15,2013-03-23 05:45:00,
2013-03-23 00:55:00,33.0,20.2,29.98,ESE,121,0.0,0.0,59,0.00,,,0.00,0,Wunderground v.1.15,2013-03-23 05:55:00,
2013-03-23 01:05:00,33.0,20.2,29.99,ESE,121,0.0,0.0,59,0.00,,,0.00,0,Wunderground v.1.15,2013-03-23 06:05:00,
2013-03-23 01:15:00,32.9,20.5,29.98,ESE,121,0.0,0.0,60,0.00,,,0.00,0,Wunderground v.1.15,2013-03-23 06:15:00,
2013-03-23 01:25:00,32.8,20.4,29.98,ESE,121,0.0,0.0,60,0.00,,,0.00,0,Wunderground v.1.15,2013-03-23 06:25:00,
2013-03-23 01:35:00,32.8,20.8,29.98,ESE,121,0.0,0.0,61,0.00,,,0.00,0,Wunderground v.1.15,2013-03-23 06:35:00,
2013-03-23 01:45:00,32.7,21.1,29.99,ESE,121,0.0,0.0,62,0.00,,,0.00,0,Wunderground v.1.15,2013-03-23 06:45:00,
2013-03-23 01:50:00,32.6,21.4,29.99,ESE,121,0.0,0.0,63,0.00,,,0.00,0,Wunderground v.1.15,2013-03-23 06:50:00,
2013-03-23 01:55:00,32.5,21.7,29.99,ESE,121,0.0,0.0,64,0.00,,,0.00,0,Wunderground v.1.15,2013-03-23 06:55:00,
2013-03-23 02:05:00,32.4,22.7,29.98,ESE,112,0.0,0.0,67,0.00,,,0.00,0,Wunderground v.1.15,2013-03-23 07:05:00,
2013-03-23 02:15:00,32.1,22.7,29.99,ESE,112,0.0,0.0,68,0.00,,,0.00,0,Wunderground v.1.15,2013-03-23 07:15:00,
2013-03-23 02:25:00,32.0,23.0,29.99,ESE,112,0.0,0.0,69,0.00,,,0.00,0,Wunderground v.1.15,2013-03-23 07:25:00,
2013-03-23 02:35:00,31.9,23.2,30.00,ESE,112,0.0,0.0,70,0.00,,,0.00,0,Wunderground v.1.15,2013-03-23 07:35:00,
2013-03-23 02:45:00,31.9,23.6,30.01,ESE,112,0.0,0.0,71,0.00,,,0.00,0,Wunderground v.1.15,2013-03-23 07:45:00,
2013-03-23 02:55:00,31.8,23.5,30.01,ESE,112,0.0,0.0,71,0.00,,,0.00,0,Wunderground v.1.15,2013-03-23 07:55:00,
2013-03-23 03:00:00,31.7,23.7,30.01,ESE,112,0.0,0.0,72,0.00,,,0.00,0,Wunderground v.1.15,2013-03-23 08:00:00,
2013-03-23 03:10:00,31.6,23.6,30.01,ESE,112,0.0,0.0,72,0.00,,,0.00,0,Wunderground v.1.15,2013-03-23 08:10:00,
2013-03-23 03:20:00,31.6,23.6,29.99,ESE,111,0.0,0.0,72,0.00,,,0.00,0,Wunderground v.1.15,2013-03-23 08:20:00,
2013-03-23 03:25:00,31.5,23.5,29.99,ESE,111,0.0,0.0,72,0.00,,,0.00,0,Wunderground v.1.15,2013-03-23 08:25:00,
2013-03-23 03:30:00,31.5,23.5,29.99,ESE,111,0.0,0.0,72,0.00,,,0.00,0,Wunderground v.1.15,2013-03-23 08:30:00,
2013-03-23 03:40:00,31.4,23.4,29.99,ESE,111,0.0,0.0,72,0.00,,,0.00,0,Wunderground v.1.15,2013-03-23 08:40:00,
2013-03-23 03:45:00,31.4,23.7,29.98,ESE,111,0.0,0.0,73,0.00,,,0.00,0,Wunderground v.1.15,2013-03-23 08:45:00,
2013-03-23 03:50:00,31.4,23.7,29.98,ESE,111,0.0,0.0,73,0.00,,,0.00,0,Wunderground v.1.15,2013-03-23 08:50:00,
2013-03-23 03:55:00,31.3,23.6,29.98,ESE,111,0.0,0.0,73,0.00,,,0.00,0,Wunderground v.1.15,2013-03-23 08:55:00,
2013-03-23 04:05:00,31.2,23.5,29.98,ESE,111,0.0,1.0,73,0.00,,,0.00,0,Wunderground v.1.15,2013-03-23 09:05:00,
2013-03-23 04:15:00,31.1,23.5,29.96,ESE,110,1.0,1.0,73,0.00,,,0.00,0,Wunderground v.1.15,2013-03-23 09:15:00,
2013-03-23 04:25:00,31.0,23.7,29.96,ESE,107,0.0,0.0,74,0.00,,,0.00,0,Wunderground v.1.15,2013-03-23 09:25:00,
2013-03-23 04:35:00,31.0,23.7,29.97,ESE,107,0.0,1.0,74,0.00,,,0.00,0,Wunderground v.1.15,2013-03-23 09:35:00,
2013-03-23 04:40:00,31.0,23.7,29.97,ESE,107,0.0,0.0,74,0.00,,,0.00,0,Wunderground v.1.15,2013-03-23 09:40:00,
2013-03-23 04:50:00,31.0,24.0,29.98,ESE,107,0.0,0.0,75,0.00,,,0.00,0,Wunderground v.1.15,2013-03-23 09:50:00,
2013-03-23 04:55:00,31.0,24.0,29.98,ESE,107,0.0,0.0,75,0.00,,,0.00,0,Wunderground v.1.15,2013-03-23 09:55:00,
2013-03-23 05:00:00,31.0,24.0,29.99,ESE,107,0.0,0.0,75,0.00,,,0.00,0,Wunderground v.1.15,2013-03-23 10:00:00,
2013-03-23 05:05:00,31.0,24.0,29.99,ESE,107,0.0,0.0,75,0.00,,,0.00,0,Wunderground v.1.15,2013-03-23 10:05:00,
2013-03-23 05:15:00,31.0,24.0,29.99,ESE,107,0.0,0.0,75,0.00,,,0.00,0,Wunderground v.1.15,2013-03-23 10:15:00,
2013-03-23 05:25:00,31.0,24.3,29.99,ESE,107,0.0,0.0,76,0.00,,,0.00,0,Wunderground v.1.15,2013-03-23 10:25:00,
2013-03-23 05:30:00,31.0,24.3,30.00,ESE,107,0.0,0.0,76,0.00,,,0.00,0,Wunderground v.1.15,2013-03-23 10:30:00,
2013-03-23 05:40:00,31.0,24.3,30.00,ESE,107,0.0,0.0,76,0.00,,,0.00,0,Wunderground v.1.15,2013-03-23 10:40:00,
2013-03-23 05:50:00,31.0,24.3,30.01,ESE,107,0.0,0.0,76,0.00,,,0.00,0,Wunderground v.1.15,2013-03-23 10:50:00,
2013-03-23 06:00:00,31.0,24.3,30.01,ESE,107,0.0,0.0,76,0.00,,,0.00,0,Wunderground v.1.15,2013-03-23 11:00:00,
2013-03-23 06:10:00,31.0,24.6,30.01,ESE,107,0.0,0.0,77,0.00,,,0.00,0,Wunderground v.1.15,2013-03-23 11:10:00,
2013-03-23 06:20:00,31.0,24.6,30.01,ESE,107,0.0,0.0,77,0.00,,,0.00,0,Wunderground v.1.15,2013-03-23 11:20:00,
2013-03-23 06:30:00,30.9,26.3,30.01,ESE,107,0.0,0.0,83,0.00,,,0.00,0,Wunderground v.1.15,2013-03-23 11:30:00,
2013-03-23 06:40:00,30.9,24.5,30.01,ESE,107,0.0,0.0,77,0.00,,,0.00,0,Wunderground v.1.15,2013-03-23 11:40:00,
2013-03-23 06:45:00,30.9,24.5,30.01,ESE,107,0.0,0.0,77,0.00,,,0.00,0,Wunderground v.1.15,2013-03-23 11:45:00,
2013-03-23 06:55:00,30.9,24.8,30.01,ESE,107,0.0,0.0,78,0.00,,,0.00,0,Wunderground v.1.15,2013-03-23 11:55:00,
2013-03-23 07:05:00,30.8,24.7,30.02,ESE,107,0.0,0.0,78,0.00,,,0.00,0,Wunderground v.1.15,2013-03-23 12:05:00,
2013-03-23 07:10:00,30.8,24.7,30.02,ESE,107,0.0,0.0,78,0.00,,,0.00,0,Wunderground v.1.15,2013-03-23 12:10:00,
2013-03-23 07:15:00,30.8,24.7,30.02,ESE,107,0.0,0.0,78,0.00,,,0.00,0,Wunderground v.1.15,2013-03-23 12:15:00,
2013-03-23 07:24:00,30.7,25.0,30.02,ESE,107,0.0,1.0,79,0.00,,,0.00,0,Wunderground v.1.15,2013-03-23 12:24:00,
2013-03-23 07:30:00,30.6,24.9,30.02,ESE,107,0.0,0.0,79,0.00,,,0.00,0,Wunderground v.1.15,2013-03-23 12:30:00,
2013-03-23 07:35:00,30.6,24.9,30.02,ESE,107,0.0,0.0,79,0.00,,,0.00,0,Wunderground v.1.15,2013-03-23 12:35:00,
2013-03-23 07:45:00,30.5,25.1,30.02,ESE,107,0.0,1.0,80,0.00,,,0.00,12,Wunderground v.1.15,2013-03-23 12:45:00,
2013-03-23 07:55:00,30.5,25.1,30.02,ESE,107,1.0,1.0,80,0.00,,,0.00,21,Wunderground v.1.15,2013-03-23 12:55:00,
2013-03-23 08:05:00,30.3,24.9,30.01,ESE,107,0.0,0.0,80,0.00,,,0.00,46,Wunderground v.1.15,2013-03-23 13:05:00,
2013-03-23 08:10:00,30.3,24.9,30.01,ESE,107,0.0,0.0,80,0.00,,,0.00,62,Wunderground v.1.15,2013-03-23 13:10:00,
2013-03-23 08:20:00,30.4,25.0,30.02,ESE,107,1.0,2.0,80,0.00,,,0.00,76,Wunderground v.1.15,2013-03-23 13:20:00,
2013-03-23 08:25:00,30.4,25.0,30.02,ESE,107,1.0,2.0,80,0.00,,,0.00,70,Wunderground v.1.15,2013-03-23 13:25:00,
2013-03-23 08:30:00,30.5,25.1,30.02,ESE,107,0.0,2.0,80,0.00,,,0.00,51,Wunderground v.1.15,2013-03-23 13:30:00,
2013-03-23 08:40:00,30.5,25.1,30.02,ESE,107,1.0,1.0,80,0.00,,,0.00,60,Wunderground v.1.15,2013-03-23 13:40:00,
2013-03-23 08:50:00,30.6,25.2,30.02,ESE,107,1.0,1.0,80,0.00,,,0.00,72,Wunderground v.1.15,2013-03-23 13:50:00,
2013-03-23 09:00:00,30.6,24.9,30.02,ESE,107,1.0,2.0,79,0.00,,,0.00,95,Wunderground v.1.15,2013-03-23 14:00:00,
2013-03-23 09:10:00,30.7,25.0,30.02,ESE,105,2.0,2.0,79,0.00,,,0.00,114,Wunderground v.1.15,2013-03-23 14:10:00,
2013-03-23 09:19:00,31.1,25.3,30.02,ESE,102,1.0,2.0,79,0.00,,,0.00,188,Wunderground v.1.15,2013-03-23 14:19:00,
2013-03-23 09:25:00,31.4,25.6,30.02,East,101,1.0,2.0,79,0.00,,,0.00,171,Wunderground v.1.15,2013-03-23 14:25:00,
2013-03-23 09:35:00,31.6,25.2,30.02,East,93,2.0,3.0,77,0.00,,,0.00,169,Wunderground v.1.15,2013-03-23 14:35:00,
2013-03-23 09:45:00,31.8,25.1,30.04,East,93,1.0,2.0,76,0.00,,,0.00,176,Wunderground v.1.15,2013-03-23 14:45:00,
2013-03-23 09:54:00,32.0,25.3,30.04,East,93,1.0,2.0,76,0.00,,,0.00,151,Wunderground v.1.15,2013-03-23 14:54:00,
2013-03-23 10:00:00,32.0,25.0,30.05,East,93,1.0,1.0,75,0.00,,,0.00,123,Wunderground v.1.15,2013-03-23 15:00:00,
2013-03-23 10:10:00,32.3,25.3,30.05,East,93,0.0,2.0,75,0.00,,,0.00,114,Wunderground v.1.15,2013-03-23 15:10:00,
2013-03-23 10:15:00,32.2,25.2,30.05,East,93,0.0,2.0,75,0.00,,,0.00,221,Wunderground v.1.15,2013-03-23 15:15:00,
2013-03-23 10:25:00,32.5,25.5,30.05,East,93,1.0,3.0,75,0.00,,,0.00,213,Wunderground v.1.15,2013-03-23 15:25:00,
2013-03-23 10:30:00,32.6,25.2,30.05,East,84,2.0,2.0,74,0.00,,,0.00,258,Wunderground v.1.15,2013-03-23 15:30:00,
2013-03-23 10:39:00,33.0,25.0,30.05,East,83,2.0,2.0,72,0.00,,,0.00,279,Wunderground v.1.15,2013-03-23 15:39:00,
2013-03-23 10:45:00,33.1,24.7,30.05,East,80,2.0,3.0,71,0.00,,,0.00,301,Wunderground v.1.15,2013-03-23 15:45:00,
2013-03-23 10:55:00,33.6,24.9,30.05,East,79,2.0,2.0,70,0.00,,,0.00,308,Wunderground v.1.15,2013-03-23 15:55:00,
2013-03-23 11:00:00,33.5,24.8,30.05,ENE,75,2.0,3.0,70,0.00,,,0.00,258,Wunderground v.1.15,2013-03-23 16:00:00,
2013-03-23 11:10:00,33.4,24.7,30.05,ENE,74,2.0,2.0,70,0.00,,,0.00,241,Wunderground v.1.15,2013-03-23 16:10:00,
2013-03-23 11:20:00,33.7,24.3,30.05,NE,52,2.0,2.0,68,0.00,,,0.00,330,Wunderground v.1.15,2013-03-23 16:20:00,
2013-03-23 11:30:00,34.5,25.0,30.04,NNE,19,2.0,2.0,68,0.00,,,0.00,429,Wunderground v.1.15,2013-03-23 16:30:00,
2013-03-23 11:40:00,35.2,24.6,30.04,North,349,2.0,4.0,65,0.00,,,0.00,424,Wunderground v.1.15,2013-03-23 16:40:00,
2013-03-23 11:50:00,34.8,24.2,30.04,NE,40,2.0,4.0,65,0.00,,,0.00,353,Wunderground v.1.15,2013-03-23 16:50:00,
2013-03-23 12:00:00,34.6,24.0,30.04,NE,53,3.0,3.0,65,0.00,,,0.00,399,Wunderground v.1.15,2013-03-23 17:00:00,
2013-03-23 12:05:00,35.2,24.2,30.04,NE,40,3.0,3.0,64,0.00,,,0.00,396,Wunderground v.1.15,2013-03-23 17:05:00,
2013-03-23 12:15:00,35.7,24.7,30.03,NE,46,2.0,4.0,64,0.00,,,0.00,480,Wunderground v.1.15,2013-03-23 17:15:00,
2013-03-23 12:25:00,36.0,24.6,30.03,NNE,24,3.0,5.0,63,0.00,,,0.00,411,Wunderground v.1.15,2013-03-23 17:25:00,
2013-03-23 12:35:00,35.5,23.8,30.02,ENE,60,3.0,3.0,62,0.00,,,0.00,330,Wunderground v.1.15,2013-03-23 17:35:00,
2013-03-23 12:40:00,35.5,24.1,30.02,NE,42,3.0,3.0,63,0.00,,,0.00,355,Wunderground v.1.15,2013-03-23 17:40:00,
2013-03-23 12:50:00,36.2,24.0,30.02,ENE,62,2.0,4.0,61,0.00,,,0.00,373,Wunderground v.1.15,2013-03-23 17:50:00,
2013-03-23 13:00:00,36.0,23.0,30.02,NE,54,3.0,3.0,59,0.00,,,0.00,362,Wunderground v.1.15,2013-03-23 18:00:00,
2013-03-23 13:10:00,36.2,22.8,30.02,NE,55,3.0,3.0,58,0.00,,,0.00,360,Wunderground v.1.15,2013-03-23 18:10:00,
2013-03-23 13:20:00,36.8,22.6,30.00,NE,43,3.0,3.0,56,0.00,,,0.00,360,Wunderground v.1.15,2013-03-23 18:20:00,
2013-03-23 13:25:00,36.7,22.5,30.00,NE,42,3.0,3.0,56,0.00,,,0.00,346,Wunderground v.1.15,2013-03-23 18:25:00,
2013-03-23 13:35:00,37.0,22.7,30.00,NE,43,2.0,2.0,56,0.00,,,0.00,364,Wunderground v.1.15,2013-03-23 18:35:00,
2013-03-23 13:45:00,36.4,23.0,30.00,NE,50,3.0,3.0,58,0.00,,,0.00,302,Wunderground v.1.15,2013-03-23 18:45:00,
2013-03-23 13:55:00,36.2,23.6,30.00,NE,46,3.0,3.0,60,0.00,,,0.00,315,Wunderground v.1.15,2013-03-23 18:55:00,
2013-03-23 14:00:00,36.2,24.0,29.99,NE,48,3.0,4.0,61,0.00,,,0.00,334,Wunderground v.1.15,2013-03-23 19:00:00,
2013-03-23 14:10:00,36.8,24.6,29.99,NE,37,3.0,3.0,61,0.00,,,0.00,341,Wunderground v.1.15,2013-03-23 19:10:00,
2013-03-23 14:15:00,37.2,25.0,29.98,NE,47,2.0,3.0,61,0.00,,,0.00,434,Wunderground v.1.15,2013-03-23 19:15:00,
2013-03-23 14:25:00,37.3,25.1,29.98,NE,54,2.0,2.0,61,0.00,,,0.00,353,Wunderground v.1.15,2013-03-23 19:25:00,
2013-03-23 14:35:00,36.3,25.3,29.97,NE,46,3.0,5.0,64,0.00,,,0.00,297,Wunderground v.1.15,2013-03-23 19:35:00,
2013-03-23 14:45:00,36.2,25.6,29.97,NE,53,3.0,3.0,65,0.00,,,0.00,274,Wunderground v.1.15,2013-03-23 19:45:00,
2013-03-23 14:55:00,35.9,25.6,29.97,ENE,65,2.0,3.0,66,0.00,,,0.00,171,Wunderground v.1.15,2013-03-23 19:55:00,
2013-03-23 15:00:00,36.1,25.8,29.97,NE,54,2.0,2.0,66,0.00,,,0.00,169,Wunderground v.1.15,2013-03-23 20:00:00,
2013-03-23 15:05:00,35.9,25.6,29.97,NE,36,2.0,3.0,66,0.00,,,0.00,165,Wunderground v.1.15,2013-03-23 20:05:00,
2013-03-23 15:15:00,35.7,25.8,29.97,NE,52,2.0,2.0,67,0.00,,,0.00,197,Wunderground v.1.15,2013-03-23 20:15:00,
2013-03-23 15:25:00,35.6,26.1,29.97,NE,44,2.0,3.0,68,0.00,,,0.00,188,Wunderground v.1.15,2013-03-23 20:25:00,
2013-03-23 15:30:00,35.3,26.1,29.97,NE,34,3.0,3.0,69,0.00,,,0.00,160,Wunderground v.1.15,2013-03-23 20:30:00,
2013-03-23 15:40:00,35.0,27.2,29.97,NNE,16,3.0,4.0,73,0.00,,,0.00,81,Wunderground v.1.15,2013-03-23 20:40:00,
2013-03-23 15:50:00,34.6,27.5,29.97,NE,49,1.0,2.0,75,0.00,,,0.00,98,Wunderground v.1.15,2013-03-23 20:50:00,
2013-03-23 16:00:00,33.8,27.4,29.97,NE,47,3.0,3.0,77,0.00,,,0.00,149,Wunderground v.1.15,2013-03-23 21:00:00,
2013-03-23 16:05:00,33.7,27.6,29.97,ENE,57,2.0,3.0,78,0.00,,,0.00,167,Wunderground v.1.15,2013-03-23 21:05:00,
2013-03-23 16:10:00,33.5,28.0,29.97,NE,44,2.0,2.0,80,0.00,,,0.00,132,Wunderground v.1.15,2013-03-23 21:10:00,
2013-03-23 16:20:00,32.8,28.2,29.97,NE,48,2.0,4.0,83,0.00,,,0.00,153,Wunderground v.1.15,2013-03-23 21:20:00,
2013-03-23 16:25:00,32.7,28.4,29.97,NE,52,2.0,4.0,84,0.00,,,0.00,151,Wunderground v.1.15,2013-03-23 21:25:00,
2013-03-23 16:35:00,32.9,28.9,29.98,NE,39,0.0,2.0,85,0.00,,,0.00,165,Wunderground v.1.15,2013-03-23 21:35:00,
2013-03-23 16:40:00,32.6,28.6,29.98,ENE,58,0.0,4.0,85,0.00,,,0.00,158,Wunderground v.1.15,2013-03-23 21:40:00,
2013-03-23 16:50:00,32.4,29.0,29.98,ENE,58,1.0,3.0,87,0.00,,,0.00,88,Wunderground v.1.15,2013-03-23 21:50:00,
2013-03-23 17:00:00,32.0,28.8,29.98,NE,35,1.0,1.0,88,0.00,,,0.00,84,Wunderground v.1.15,2013-03-23 22:00:00,
2013-03-23 17:05:00,31.9,28.8,29.98,ENE,59,1.0,4.0,88,0.00,,,0.00,109,Wunderground v.1.15,2013-03-23 22:05:00,
2013-03-23 17:10:00,31.6,28.5,29.98,NE,54,1.0,1.0,88,0.00,,,0.00,105,Wunderground v.1.15,2013-03-23 22:10:00,
2013-03-23 17:20:00,31.4,28.5,29.99,NE,43,1.0,4.0,89,0.00,,,0.00,90,Wunderground v.1.15,2013-03-23 22:20:00,
2013-03-23 17:30:00,31.2,28.3,29.99,NE,42,2.0,2.0,89,0.00,,,0.00,70,Wunderground v.1.15,2013-03-23 22:30:00,
2013-03-23 17:40:00,31.0,28.1,29.99,NNE,33,2.0,2.0,89,0.00,,,0.00,83,Wunderground v.1.15,2013-03-23 22:40:00,
2013-03-23 17:45:00,30.8,28.2,29.99,NNE,30,3.0,3.0,90,0.00,,,0.00,81,Wunderground v.1.15,2013-03-23 22:45:00,
2013-03-23 17:55:00,30.7,28.1,29.99,NE,42,3.0,4.0,90,0.00,,,0.00,37,Wunderground v.1.15,2013-03-23 22:55:00,
2013-03-23 18:05:00,30.7,28.1,29.99,NNE,22,2.0,4.0,90,0.00,,,0.00,42,Wunderground v.1.15,2013-03-23 23:05:00,
2013-03-23 18:15:00,30.4,27.8,29.99,North,5,3.0,3.0,90,0.00,,,0.00,54,Wunderground v.1.15,2013-03-23 23:15:00,
2013-03-23 18:25:00,30.2,27.9,29.99,NNW,348,3.0,11.0,91,0.00,,,0.00,54,Wunderground v.1.15,2013-03-23 23:25:00,
2013-03-23 18:34:00,30.0,27.7,29.99,NNE,32,4.0,4.0,91,0.00,,,0.01,42,Wunderground v.1.15,2013-03-23 23:34:00,
2013-03-23 18:40:00,30.0,27.7,29.99,NNE,14,3.0,5.0,91,0.00,,,0.01,35,Wunderground v.1.15,2013-03-23 23:40:00,
2013-03-23 18:50:00,30.0,27.7,29.99,NNE,31,2.0,2.0,91,0.00,,,0.01,25,Wunderground v.1.15,2013-03-23 23:50:00,
2013-03-23 19:00:00,30.1,27.8,30.00,NNE,13,2.0,3.0,91,0.00,,,0.01,19,Wunderground v.1.15,2013-03-24 00:00:00,
2013-03-23 19:10:00,30.1,28.1,30.00,North,5,3.0,3.0,92,0.00,,,0.01,14,Wunderground v.1.15,2013-03-24 00:10:00,
2013-03-23 19:20:00,30.0,28.0,30.00,NE,43,3.0,3.0,92,0.00,,,0.01,7,Wunderground v.1.15,2013-03-24 00:20:00,
2013-03-23 19:30:00,29.9,27.9,30.00,North,5,2.0,2.0,92,0.00,,,0.01,0,Wunderground v.1.15,2013-03-24 00:30:00,
2013-03-23 19:40:00,29.8,27.8,30.00,NNE,22,3.0,3.0,92,0.00,,,0.01,0,Wunderground v.1.15,2013-03-24 00:40:00,
2013-03-23 19:45:00,29.7,27.7,30.01,NNE,26,3.0,3.0,92,0.00,,,0.01,0,Wunderground v.1.15,2013-03-24 00:45:00,
2013-03-23 19:54:00,29.5,27.5,30.01,NNE,22,3.0,3.0,92,0.00,,,0.01,0,Wunderground v.1.15,2013-03-24 00:54:00,
2013-03-23 20:00:00,29.5,27.5,30.02,NNE,15,2.0,6.0,92,0.00,,,0.01,0,Wunderground v.1.15,2013-03-24 01:00:00,
2013-03-23 20:10:00,29.4,27.4,30.02,NNE,15,2.0,4.0,92,0.00,,,0.01,0,Wunderground v.1.15,2013-03-24 01:10:00,
2013-03-23 20:20:00,29.1,27.1,30.02,North,355,4.0,5.0,92,0.00,,,0.01,0,Wunderground v.1.15,2013-03-24 01:20:00,
2013-03-23 20:30:00,28.9,27.1,30.03,NNE,22,3.0,3.0,93,0.00,,,0.01,0,Wunderground v.1.15,2013-03-24 01:30:00,
2013-03-23 20:40:00,28.6,26.6,30.03,NE,40,3.0,3.0,92,0.00,,,0.01,0,Wunderground v.1.15,2013-03-24 01:40:00,
2013-03-23 20:50:00,28.5,26.7,30.02,NE,44,3.0,3.0,93,0.00,,,0.01,0,Wunderground v.1.15,2013-03-24 01:50:00,
2013-03-23 20:55:00,28.4,26.6,30.02,NNE,15,3.0,6.0,93,0.00,,,0.01,0,Wunderground v.1.15,2013-03-24 01:55:00,
2013-03-23 21:05:00,28.4,26.6,30.02,NE,50,3.0,5.0,93,0.00,,,0.01,0,Wunderground v.1.15,2013-03-24 02:05:00,
2013-03-23 21:15:00,28.4,26.6,30.02,North,5,2.0,3.0,93,0.00,,,0.01,0,Wunderground v.1.15,2013-03-24 02:15:00,
2013-03-23 21:25:00,28.4,26.6,30.02,NNE,33,2.0,2.0,93,0.00,,,0.01,0,Wunderground v.1.15,2013-03-24 02:25:00,
2013-03-23 21:35:00,28.5,26.7,30.02,North,360,1.0,2.0,93,0.00,,,0.01,0,Wunderground v.1.15,2013-03-24 02:35:00,
2013-03-23 21:45:00,28.5,26.7,30.01,East,90,3.0,3.0,93,0.00,,,0.01,0,Wunderground v.1.15,2013-03-24 02:45:00,
2013-03-23 21:55:00,28.5,26.7,30.01,NNE,28,2.0,3.0,93,0.00,,,0.01,0,Wunderground v.1.15,2013-03-24 02:55:00,
2013-03-23 22:05:00,28.4,26.6,30.01,NNE,32,3.0,3.0,93,0.00,,,0.01,0,Wunderground v.1.15,2013-03-24 03:05:00,
2013-03-23 22:15:00,28.4,26.6,30.01,NE,34,2.0,3.0,93,0.00,,,0.01,0,Wunderground v.1.15,2013-03-24 03:15:00,
2013-03-23 22:25:00,28.4,26.6,30.01,NNE,24,3.0,6.0,93,0.00,,,0.01,0,Wunderground v.1.15,2013-03-24 03:25:00,
2013-03-23 22:35:00,28.4,26.6,30.01,North,5,3.0,7.0,93,0.00,,,0.01,0,Wunderground v.1.15,2013-03-24 03:35:00,
2013-03-23 22:44:00,28.3,26.5,30.02,North,10,4.0,4.0,93,0.00,,,0.01,0,Wunderground v.1.15,2013-03-24 03:44:00,
2013-03-23 22:50:00,28.4,26.6,30.02,North,5,3.0,3.0,93,0.00,,,0.01,0,Wunderground v.1.15,2013-03-24 03:50:00,
2013-03-23 23:05:00,28.5,26.7,30.01,NNE,13,4.0,4.0,93,0.00,,,0.01,0,Wunderground v.1.15,2013-03-24 04:05:00,
2013-03-23 23:10:00,28.5,26.7,30.01,North,5,4.0,4.0,93,0.00,,,0.01,0,Wunderground v.1.15,2013-03-24 04:10:00,
2013-03-23 23:15:00,28.5,26.7,30.01,North,5,3.0,4.0,93,0.00,,,0.01,0,Wunderground v.1.15,2013-03-24 04:15:00,
2013-03-23 23:25:00,28.5,26.7,30.01,NNE,12,3.0,3.0,93,0.00,,,0.01,0,Wunderground v.1.15,2013-03-24 04:25:00,
2013-03-23 23:30:00,28.4,26.6,30.00,North,9,4.0,4.0,93,0.00,,,0.01,0,Wunderground v.1.15,2013-03-24 04:30:00,
2013-03-23 23:35:00,28.3,26.3,30.00,North,355,3.0,7.0,92,0.00,,,0.01,0,Wunderground v.1.15,2013-03-24 04:35:00,
2013-03-23 23:45:00,28.1,26.1,30.01,North,5,4.0,9.0,92,0.00,,,0.01,0,Wunderground v.1.15,2013-03-24 04:45:00,
2013-03-23 23:50:00,28.0,26.0,30.01,North,360,4.0,10.0,92,0.00,,,0.01,0,Wunderground v.1.15,2013-03-24 04:50:00,